Time;durP1;ratioP1;P1;durP2;ratioP2;P2;SDS_P1;SDS_P2;PMS_P1;PMS_P2;Temp;Humidity;BMP_temperature;BMP_pressure;BME280_temperature;BME280_humidity;BME280_pressure;Samples;Min_cycle;Max_cycle;Signal;HPM_P1;HPM_P2
2023/09/04 00:01:40;;;;;;;15.37;4.93;;;17.80;30.20;;;;;;5024385;28;20486;-69
2023/09/04 00:04:08;;;;;;;7.90;4.90;;;17.80;30.30;;;;;;5070050;23;20491;-66
2023/09/04 00:06:35;;;;;;;6.60;4.60;;;17.70;30.20;;;;;;5020624;28;20459;-66
2023/09/04 00:09:04;;;;;;;8.03;5.20;;;17.70;30.30;;;;;;5025757;28;20978;-66
2023/09/04 00:11:31;;;;;;;8.10;6.00;;;17.70;30.40;;;;;;5026798;28;20471;-66
2023/09/04 00:13:59;;;;;;;7.30;5.10;;;17.70;30.40;;;;;;5015483;28;20498;-66
2023/09/04 00:16:26;;;;;;;9.70;5.73;;;17.70;30.30;;;;;;5020679;28;20490;-66
2023/09/04 00:18:52;;;;;;;7.87;5.40;;;17.70;30.30;;;;;;5023311;28;20982;-66
2023/09/04 00:21:19;;;;;;;7.20;5.17;;;17.70;30.20;;;;;;5027429;28;20466;-66
2023/09/04 00:23:46;;;;;;;7.10;5.30;;;17.70;30.10;;;;;;5016892;28;20486;-66
2023/09/04 00:26:13;;;;;;;9.93;6.10;;;17.60;30.00;;;;;;5026295;28;20475;-66
2023/09/04 00:28:39;;;;;;;7.77;5.53;;;17.60;30.30;;;;;;5026181;28;20467;-67
2023/09/04 00:31:07;;;;;;;7.47;5.13;;;17.50;30.40;;;;;;5026147;28;20474;-68
2023/09/04 00:33:34;;;;;;;9.40;5.30;;;17.50;30.30;;;;;;5022649;28;20483;-68
2023/09/04 00:36:02;;;;;;;8.00;5.43;;;17.50;30.30;;;;;;5022381;28;20464;-68
2023/09/04 00:38:29;;;;;;;7.43;4.90;;;17.50;30.30;;;;;;5028960;28;20481;-68
2023/09/04 00:40:55;;;;;;;9.70;5.73;;;17.40;30.30;;;;;;5030464;28;20479;-68
2023/09/04 00:43:22;;;;;;;9.40;5.67;;;17.40;30.30;;;;;;5030796;28;20494;-68
2023/09/04 00:45:49;;;;;;;9.20;6.33;;;17.40;30.40;;;;;;5027049;28;20466;-68
2023/09/04 00:48:17;;;;;;;9.53;6.37;;;17.40;30.50;;;;;;5026451;28;21094;-68
2023/09/04 00:50:44;;;;;;;7.70;5.60;;;17.40;30.20;;;;;;5025910;28;20487;-68
2023/09/04 00:53:12;;;;;;;9.07;5.77;;;17.40;30.30;;;;;;5026645;28;20486;-68
2023/09/04 00:55:39;;;;;;;7.27;4.83;;;17.40;30.10;;;;;;5028312;28;20486;-68
2023/09/04 00:58:06;;;;;;;6.90;5.37;;;17.40;29.90;;;;;;5024097;28;20602;-68
2023/09/04 01:00:33;;;;;;;8.20;5.93;;;17.40;30.00;;;;;;5025741;28;20489;-68
2023/09/04 01:03:02;;;;;;;8.53;5.83;;;17.40;29.80;;;;;;5024287;28;20554;-68
2023/09/04 01:05:32;;;;;;;13.77;6.67;;;17.40;29.90;;;;;;5021511;28;21029;-68
2023/09/04 01:07:59;;;;;;;8.00;6.17;;;17.30;29.90;;;;;;5021922;28;20462;-68
2023/09/04 01:10:33;;;;;;;8.67;5.80;;;17.30;30.00;;;;;;5029560;28;20458;-68
2023/09/04 01:13:06;;;;;;;11.07;6.57;;;17.30;29.80;;;;;;5024703;28;20469;-68
2023/09/04 01:15:34;;;;;;;7.67;5.43;;;17.30;29.60;;;;;;5025876;28;20475;-68
2023/09/04 01:18:02;;;;;;;8.40;6.27;;;17.30;29.80;;;;;;5026287;28;20463;-68
2023/09/04 01:20:32;;;;;;;8.33;5.77;;;17.30;29.90;;;;;;5024929;28;20485;-68
2023/09/04 01:22:59;;;;;;;8.60;6.07;;;17.30;29.80;;;;;;5021082;28;20467;-68
2023/09/04 01:25:39;;;;;;;7.93;5.87;;;17.20;30.00;;;;;;5025454;28;20485;-68
2023/09/04 01:28:13;;;;;;;8.33;5.40;;;17.20;30.20;;;;;;5025769;28;20493;-68
2023/09/04 01:30:47;;;;;;;7.67;5.00;;;17.20;30.20;;;;;;5021533;28;20487;-68
2023/09/04 01:33:20;;;;;;;10.40;6.23;;;17.20;30.10;;;;;;5023365;28;20479;-68
2023/09/04 01:35:51;;;;;;;8.90;6.10;;;17.10;30.40;;;;;;5023555;28;20471;-68
2023/09/04 01:38:18;;;;;;;14.07;7.10;;;17.10;30.40;;;;;;5027510;28;20466;-68
2023/09/04 01:40:50;;;;;;;9.10;5.97;;;17.20;30.70;;;;;;5025726;28;20515;-68
2023/09/04 01:43:17;;;;;;;8.23;5.60;;;17.20;30.30;;;;;;5026757;28;20490;-68
2023/09/04 01:45:43;;;;;;;7.27;5.00;;;17.10;30.40;;;;;;5026920;28;20463;-68
2023/09/04 01:48:10;;;;;;;8.90;6.20;;;17.20;30.10;;;;;;5020588;28;20460;-68
2023/09/04 01:50:37;;;;;;;7.90;6.10;;;17.20;30.30;;;;;;5027214;28;20807;-68
2023/09/04 01:53:05;;;;;;;7.30;5.37;;;17.10;30.10;;;;;;5022930;28;20483;-68
2023/09/04 01:55:32;;;;;;;11.40;5.33;;;17.10;30.20;;;;;;5027832;28;20467;-68
2023/09/04 01:57:59;;;;;;;7.30;5.40;;;17.10;30.00;;;;;;5023897;28;20469;-68
2023/09/04 02:00:25;;;;;;;7.63;5.90;;;17.10;30.20;;;;;;5026696;28;20901;-69
2023/09/04 02:02:52;;;;;;;9.13;6.33;;;17.10;30.10;;;;;;5024366;28;20466;-68
2023/09/04 02:05:19;;;;;;;11.60;6.00;;;17.10;30.20;;;;;;5023263;28;20467;-68
2023/09/04 02:07:45;;;;;;;8.87;6.33;;;17.00;30.30;;;;;;5026890;28;20466;-69
2023/09/04 02:10:14;;;;;;;8.37;5.90;;;17.10;30.30;;;;;;5026625;28;20482;-68
2023/09/04 02:12:40;;;;;;;10.37;5.70;;;17.00;30.10;;;;;;5026624;28;20471;-68
2023/09/04 02:15:08;;;;;;;10.30;6.83;;;17.00;30.20;;;;;;5025062;28;21274;-68
2023/09/04 02:17:35;;;;;;;9.10;6.70;;;17.00;30.20;;;;;;5022970;28;20836;-68
2023/09/04 02:20:04;;;;;;;11.17;6.57;;;17.00;30.30;;;;;;5027278;28;20479;-69
2023/09/04 02:22:31;;;;;;;9.10;6.13;;;16.90;30.50;;;;;;5027526;28;20564;-69
2023/09/04 02:24:58;;;;;;;8.90;5.63;;;16.90;30.40;;;;;;5024263;28;20490;-68
2023/09/04 02:27:26;;;;;;;8.27;6.07;;;16.90;30.50;;;;;;5023194;28;20462;-69
2023/09/04 02:29:52;;;;;;;10.07;7.00;;;16.80;30.60;;;;;;5025456;28;20481;-69
2023/09/04 02:32:19;;;;;;;9.83;6.57;;;16.90;31.00;;;;;;5025557;28;20467;-69
2023/09/04 02:34:46;;;;;;;10.20;6.83;;;16.80;30.90;;;;;;5025578;28;20508;-69
2023/09/04 02:37:13;;;;;;;11.13;7.03;;;16.80;31.10;;;;;;5026592;28;20459;-69
2023/09/04 02:39:40;;;;;;;10.80;6.60;;;16.80;31.00;;;;;;5025099;28;20463;-69
2023/09/04 02:42:06;;;;;;;9.23;6.80;;;16.70;31.20;;;;;;5025395;28;20467;-69
2023/09/04 02:44:34;;;;;;;8.37;6.10;;;16.70;31.30;;;;;;5026767;28;20479;-69
2023/09/04 02:47:01;;;;;;;8.70;5.83;;;16.70;31.20;;;;;;5025500;28;20466;-68
2023/09/04 02:49:28;;;;;;;8.87;6.13;;;16.70;31.30;;;;;;5027026;28;20471;-68
2023/09/04 02:51:55;;;;;;;10.90;6.00;;;16.60;31.30;;;;;;5019992;28;20462;-68
2023/09/04 02:54:21;;;;;;;11.73;6.20;;;16.60;31.40;;;;;;5025205;28;20514;-68
2023/09/04 02:56:48;;;;;;;7.43;5.93;;;16.60;31.30;;;;;;5025810;28;20466;-68
2023/09/04 02:59:15;;;;;;;13.13;7.73;;;16.60;31.30;;;;;;5024777;28;20470;-69
2023/09/04 03:01:43;;;;;;;8.30;6.50;;;16.50;31.40;;;;;;5023927;28;20486;-69
2023/09/04 03:04:11;;;;;;;9.40;7.10;;;16.40;31.60;;;;;;5027112;28;20494;-69
2023/09/04 03:06:38;;;;;;;9.37;6.80;;;16.40;31.50;;;;;;5025471;28;20947;-69
2023/09/04 03:09:05;;;;;;;9.83;7.13;;;16.30;31.80;;;;;;5024617;28;20494;-68
2023/09/04 03:11:32;;;;;;;10.13;7.10;;;16.30;32.10;;;;;;5026974;28;20487;-68
2023/09/04 03:13:58;;;;;;;10.13;7.30;;;16.30;32.10;;;;;;5025229;28;20482;-68
2023/09/04 03:16:27;;;;;;;10.30;6.97;;;16.30;32.20;;;;;;5027081;28;20467;-69
2023/09/04 03:18:55;;;;;;;10.60;7.50;;;16.20;32.20;;;;;;5024713;28;20462;-68
2023/09/04 03:21:21;;;;;;;9.07;7.80;;;16.20;32.50;;;;;;5027582;28;20474;-68
2023/09/04 03:23:51;;;;;;;9.50;7.40;;;16.20;32.60;;;;;;5025510;28;20482;-69
2023/09/04 03:26:17;;;;;;;10.20;7.40;;;16.20;32.70;;;;;;5020288;28;20503;-68
2023/09/04 03:28:44;;;;;;;9.23;7.10;;;16.10;32.80;;;;;;5026411;28;20463;-68
2023/09/04 03:31:13;;;;;;;9.87;6.83;;;16.10;32.80;;;;;;5024075;28;20479;-69
2023/09/04 03:33:40;;;;;;;11.00;7.80;;;16.10;32.80;;;;;;5023443;28;21028;-68
2023/09/04 03:36:09;;;;;;;11.20;7.57;;;16.10;33.00;;;;;;5021548;28;20467;-68
2023/09/04 03:38:36;;;;;;;11.50;7.60;;;16.00;33.10;;;;;;5022913;28;20478;-68
2023/09/04 03:41:03;;;;;;;10.27;7.77;;;16.00;33.20;;;;;;5021204;28;20864;-68
2023/09/04 03:43:30;;;;;;;8.90;6.40;;;16.00;33.10;;;;;;5022338;28;20907;-69
2023/09/04 03:45:56;;;;;;;10.83;7.73;;;16.00;33.30;;;;;;5022986;28;20475;-69
2023/09/04 03:48:23;;;;;;;8.60;6.87;;;15.90;33.40;;;;;;5025937;28;20465;-69
2023/09/04 03:50:50;;;;;;;9.50;6.80;;;15.90;33.50;;;;;;5025862;28;20459;-68
2023/09/04 03:53:18;;;;;;;9.37;7.47;;;15.90;33.60;;;;;;5023310;28;20479;-68
2023/09/04 03:55:45;;;;;;;9.10;7.00;;;15.90;33.70;;;;;;5024731;28;20470;-68
2023/09/04 03:58:11;;;;;;;10.47;8.10;;;15.80;33.40;;;;;;5025769;28;20478;-69
2023/09/04 04:00:39;;;;;;;10.20;7.17;;;15.80;33.40;;;;;;5022524;28;20479;-69
2023/09/04 04:03:05;;;;;;;9.27;6.67;;;15.80;33.50;;;;;;5020581;28;20486;-68
2023/09/04 04:05:32;;;;;;;10.03;6.80;;;15.80;33.50;;;;;;5025800;28;20471;-68
2023/09/04 04:07:59;;;;;;;9.47;6.90;;;15.80;33.50;;;;;;5024534;28;20463;-69
2023/09/04 04:10:27;;;;;;;11.50;8.20;;;15.80;33.40;;;;;;5022581;28;20478;-69
2023/09/04 04:12:53;;;;;;;9.93;7.60;;;15.80;33.30;;;;;;5021746;28;20471;-68
2023/09/04 04:15:21;;;;;;;11.17;7.40;;;15.80;33.30;;;;;;5023067;28;20959;-68
2023/09/04 04:17:48;;;;;;;11.07;8.00;;;15.70;33.40;;;;;;5023322;28;20947;-68
2023/09/04 04:20:16;;;;;;;11.50;7.90;;;15.70;33.50;;;;;;5023032;28;20821;-68
2023/09/04 04:22:43;;;;;;;10.90;7.67;;;15.70;33.40;;;;;;5023175;28;20462;-69
2023/09/04 04:25:10;;;;;;;12.60;7.90;;;15.70;33.30;;;;;;5023302;28;20466;-69
2023/09/04 04:27:39;;;;;;;10.97;7.90;;;15.70;33.00;;;;;;5020799;28;20484;-69
2023/09/04 04:30:07;;;;;;;9.30;7.07;;;15.70;33.20;;;;;;5021307;28;20468;-69
2023/09/04 04:32:33;;;;;;;10.40;7.80;;;15.70;33.20;;;;;;5022260;28;20475;-69
2023/09/04 04:35:00;;;;;;;13.03;8.37;;;15.70;33.30;;;;;;5021357;28;20991;-69
2023/09/04 04:37:27;;;;;;;12.30;8.40;;;15.70;33.20;;;;;;5019842;28;20468;-69
2023/09/04 04:39:54;;;;;;;11.63;8.80;;;15.70;33.10;;;;;;5021556;28;20482;-68
2023/09/04 04:42:20;;;;;;;10.70;7.97;;;15.70;33.30;;;;;;5024975;28;20502;-68
2023/09/04 04:44:48;;;;;;;10.27;7.67;;;15.70;33.10;;;;;;5022010;28;20490;-68
2023/09/04 04:47:15;;;;;;;12.00;8.20;;;15.70;33.20;;;;;;5023346;28;20987;-68
2023/09/04 04:49:42;;;;;;;16.33;8.57;;;15.60;33.20;;;;;;5022479;28;20467;-68
2023/09/04 04:52:09;;;;;;;11.47;8.00;;;15.60;33.20;;;;;;5021117;28;20466;-68
2023/09/04 04:54:36;;;;;;;10.10;8.20;;;15.60;33.40;;;;;;5024873;28;20490;-68
2023/09/04 04:57:03;;;;;;;10.43;7.73;;;15.70;33.50;;;;;;5025618;28;20470;-68
2023/09/04 04:59:30;;;;;;;12.07;7.90;;;15.80;33.40;;;;;;5022159;28;20467;-68
2023/09/04 05:02:00;;;;;;;12.70;9.30;;;15.80;33.50;;;;;;5021310;28;20479;-68
2023/09/04 05:04:26;;;;;;;11.03;8.23;;;15.80;33.70;;;;;;5019323;28;20569;-68
2023/09/04 05:06:53;;;;;;;11.30;8.67;;;15.90;33.50;;;;;;5023069;28;20480;-68
2023/09/04 05:09:20;;;;;;;10.63;8.13;;;16.10;33.60;;;;;;5024457;28;20498;-68
2023/09/04 05:11:47;;;;;;;11.10;8.80;;;16.30;33.00;;;;;;5024705;28;21022;-68
2023/09/04 05:14:14;;;;;;;10.13;8.20;;;16.60;32.10;;;;;;5023104;28;20490;-68
2023/09/04 05:16:40;;;;;;;14.10;8.00;;;16.90;31.30;;;;;;5026343;28;20463;-68
2023/09/04 05:19:09;;;;;;;10.73;9.20;;;17.20;30.40;;;;;;5022851;28;20490;-68
2023/09/04 05:21:36;;;;;;;12.07;10.20;;;17.40;29.70;;;;;;5025290;28;21022;-68
2023/09/04 05:24:03;;;;;;;10.40;9.27;;;17.60;29.10;;;;;;5028374;28;20486;-68
2023/09/04 05:26:30;;;;;;;11.47;10.37;;;17.90;28.20;;;;;;5026893;28;20458;-68
2023/09/04 05:28:57;;;;;;;12.73;9.80;;;18.00;27.40;;;;;;5028472;28;20470;-69
2023/09/04 05:31:23;;;;;;;8.83;7.23;;;18.10;26.80;;;;;;5027123;28;20481;-68
2023/09/04 05:33:50;;;;;;;9.83;7.63;;;18.10;26.60;;;;;;5026774;28;21010;-68
2023/09/04 05:36:18;;;;;;;11.27;7.13;;;18.20;26.60;;;;;;5026782;28;20489;-68
2023/09/04 05:38:45;;;;;;;11.93;7.57;;;18.40;26.70;;;;;;5024861;28;20678;-68
2023/09/04 05:41:11;;;;;;;9.53;7.13;;;18.50;26.60;;;;;;5025538;28;21047;-68
2023/09/04 05:43:38;;;;;;;8.50;7.00;;;18.60;26.60;;;;;;5024442;28;20479;-68
2023/09/04 05:46:05;;;;;;;8.73;6.03;;;18.80;26.10;;;;;;5024008;28;20463;-68
2023/09/04 05:48:31;;;;;;;8.77;6.10;;;19.00;25.30;;;;;;5021709;28;20467;-69
2023/09/04 05:50:58;;;;;;;9.90;7.10;;;19.30;24.30;;;;;;5023918;28;20517;-69
2023/09/04 05:53:26;;;;;;;8.63;7.23;;;19.60;22.10;;;;;;5022970;28;20736;-71
2023/09/04 05:56:06;;;;;;;10.97;6.97;;;20.10;20.70;;;;;;5025822;28;20467;-70
2023/09/04 05:58:33;;;;;;;10.17;6.73;;;20.40;19.60;;;;;;5026538;28;20465;-70
2023/09/04 06:01:00;;;;;;;7.83;5.90;;;20.70;18.80;;;;;;5020785;28;20467;-70
2023/09/04 06:03:27;;;;;;;11.07;6.43;;;20.90;18.10;;;;;;5020362;23;20485;-73
2023/09/04 06:05:54;;;;;;;8.83;7.07;;;21.50;16.90;;;;;;4986429;28;20472;-73
2023/09/04 06:08:21;;;;;;;10.10;6.70;;;22.50;15.10;;;;;;4987361;28;20457;-72
2023/09/04 06:10:49;;;;;;;8.70;6.97;;;23.60;12.70;;;;;;4987849;28;20476;-73
2023/09/04 06:13:16;;;;;;;8.03;5.50;;;24.90;9.80;;;;;;4983930;28;20587;-72
2023/09/04 06:15:43;;;;;;;8.37;6.50;;;26.10;6.80;;;;;;4987500;28;20988;-71
2023/09/04 06:18:09;;;;;;;8.10;5.13;;;27.60;3.90;;;;;;4989300;28;21031;-71
2023/09/04 06:20:36;;;;;;;7.77;5.90;;;28.80;1.00;;;;;;4982787;28;20490;-67
2023/09/04 06:23:03;;;;;;;10.30;6.37;;;30.00;1.00;;;;;;4983338;28;20496;-67
2023/09/04 06:25:30;;;;;;;7.33;5.87;;;31.20;1.00;;;;;;4976902;28;20468;-67
2023/09/04 06:27:58;;;;;;;6.27;4.90;;;32.30;1.00;;;;;;4984593;28;20476;-67
2023/09/04 06:30:24;;;;;;;7.60;5.17;;;33.20;1.00;;;;;;4990293;28;20456;-68
2023/09/04 06:32:51;;;;;;;6.63;5.50;;;34.10;1.00;;;;;;4989951;28;20464;-69
2023/09/04 06:35:18;;;;;;;6.53;5.13;;;35.00;1.00;;;;;;4987670;28;20465;-67
2023/09/04 06:37:44;;;;;;;6.23;4.93;;;36.00;1.00;;;;;;4983014;28;20932;-70
2023/09/04 06:40:13;;;;;;;5.30;4.30;;;37.00;1.00;;;;;;4989414;28;20453;-67
2023/09/04 06:42:39;;;;;;;5.57;4.70;;;37.90;1.00;;;;;;4989175;28;20488;-68
2023/09/04 06:45:09;;;;;;;6.90;5.80;;;38.70;1.00;;;;;;4987784;28;20472;-71
2023/09/04 06:47:35;;;;;;;5.40;4.47;;;39.40;1.00;;;;;;4984792;28;20473;-67
2023/09/04 06:50:02;;;;;;;5.40;4.67;;;39.80;1.00;;;;;;4987912;28;20471;-66
2023/09/04 06:52:29;;;;;;;5.60;4.67;;;40.60;1.00;;;;;;4988727;28;20953;-66
2023/09/04 06:54:55;;;;;;;5.83;4.23;;;41.20;1.00;;;;;;4987915;28;20480;-66
2023/09/04 06:57:22;;;;;;;6.20;4.20;;;42.00;1.00;;;;;;4986899;28;20457;-66
2023/09/04 06:59:49;;;;;;;6.37;4.47;;;42.60;1.00;;;;;;4989293;28;20461;-66
2023/09/04 07:02:17;;;;;;;6.57;4.80;;;43.00;1.00;;;;;;4985925;28;20988;-66
2023/09/04 07:04:44;;;;;;;5.73;4.43;;;43.60;1.00;;;;;;4989264;28;20953;-65
2023/09/04 07:07:11;;;;;;;5.40;4.20;;;44.30;1.00;;;;;;4989371;28;20509;-66
2023/09/04 07:09:38;;;;;;;5.83;4.60;;;44.80;1.00;;;;;;4987299;28;20456;-65
2023/09/04 07:12:06;;;;;;;5.47;4.63;;;45.00;1.00;;;;;;4989380;28;20459;-66
2023/09/04 07:14:33;;;;;;;5.97;4.00;;;45.40;1.00;;;;;;4989131;28;20488;-66
2023/09/04 07:17:00;;;;;;;7.13;3.93;;;45.50;1.00;;;;;;4985234;28;20543;-66
2023/09/04 07:19:28;;;;;;;6.50;4.20;;;45.80;1.00;;;;;;4986772;28;20492;-66
2023/09/04 07:21:54;;;;;;;5.10;3.70;;;46.10;1.00;;;;;;4988326;28;20492;-65
2023/09/04 07:24:21;;;;;;;5.60;3.60;;;46.60;1.00;;;;;;4989461;28;20572;-66
2023/09/04 07:26:48;;;;;;;5.13;3.67;;;46.90;1.00;;;;;;4989231;28;20468;-66
2023/09/04 07:29:14;;;;;;;4.20;3.40;;;47.40;1.00;;;;;;4991452;28;20812;-66
2023/09/04 07:31:41;;;;;;;7.67;4.80;;;47.90;1.00;;;;;;4988040;28;20894;-67
2023/09/04 07:34:08;;;;;;;5.00;3.80;;;48.00;1.00;;;;;;4984580;28;20491;-66
2023/09/04 07:36:36;;;;;;;5.27;3.90;;;48.50;1.00;;;;;;4987623;28;21206;-66
2023/09/04 07:39:03;;;;;;;4.47;4.00;;;49.10;1.00;;;;;;4986398;28;20459;-66
2023/09/04 07:41:30;;;;;;;5.03;3.47;;;49.40;1.00;;;;;;4987911;28;20480;-66
2023/09/04 07:43:57;;;;;;;4.47;3.73;;;49.80;1.00;;;;;;4989166;28;20480;-66
2023/09/04 07:46:23;;;;;;;4.47;3.43;;;50.20;1.00;;;;;;4988907;28;20465;-67
2023/09/04 07:48:50;;;;;;;4.53;3.73;;;50.10;1.00;;;;;;4988763;28;20457;-66
2023/09/04 07:51:18;;;;;;;4.20;3.53;;;50.60;1.00;;;;;;4984838;28;20993;-66
2023/09/04 07:53:48;;;;;;;4.37;3.30;;;51.00;1.00;;;;;;4986422;28;20497;-66
2023/09/04 07:56:14;;;;;;;4.53;3.30;;;51.60;1.00;;;;;;4986561;28;20580;-67
2023/09/04 07:58:41;;;;;;;4.90;3.10;;;51.70;1.00;;;;;;4986370;28;20467;-66
2023/09/04 08:01:13;;;;;;;5.00;3.50;;;51.60;1.00;;;;;;4981345;28;20475;-65
2023/09/04 08:03:40;;;;;;;5.07;3.70;;;51.00;1.00;;;;;;4986860;28;20487;-66
2023/09/04 08:06:07;;;;;;;3.73;2.93;;;50.80;1.00;;;;;;4981951;28;20807;-66
2023/09/04 08:08:34;;;;;;;4.50;3.20;;;51.00;1.00;;;;;;4984624;28;20479;-67
2023/09/04 08:11:02;;;;;;;4.30;3.10;;;50.60;1.00;;;;;;4982288;28;20823;-66
2023/09/04 08:13:29;;;;;;;4.73;3.53;;;50.30;1.00;;;;;;4990079;28;20480;-66
2023/09/04 08:15:56;;;;;;;5.10;3.37;;;49.80;1.00;;;;;;4981030;28;20460;-67
2023/09/04 08:18:22;;;;;;;5.43;3.03;;;49.60;1.00;;;;;;4984653;28;20464;-67
2023/09/04 08:20:50;;;;;;;3.77;2.77;;;49.90;1.00;;;;;;4984443;28;20472;-66
2023/09/04 08:23:17;;;;;;;4.03;2.97;;;49.80;1.00;;;;;;4983837;28;20491;-66
2023/09/04 08:25:44;;;;;;;5.40;3.20;;;50.00;1.00;;;;;;4984548;28;20519;-66
2023/09/04 08:28:12;;;;;;;4.03;3.07;;;50.60;1.00;;;;;;4982815;28;20464;-66
2023/09/04 08:30:39;;;;;;;3.73;2.93;;;50.80;1.00;;;;;;4982271;28;20476;-66
2023/09/04 08:33:05;;;;;;;4.50;3.20;;;50.40;1.00;;;;;;4988089;28;20483;-66
2023/09/04 08:35:32;;;;;;;3.80;2.80;;;50.30;1.00;;;;;;4983652;28;20467;-67
2023/09/04 08:41:09;;;;;;;3.87;2.70;;;50.40;1.00;;;;;;4982974;28;20459;-67
2023/09/04 08:43:38;;;;;;;5.43;3.00;;;50.30;1.00;;;;;;4982491;28;20564;-67
2023/09/04 08:46:07;;;;;;;4.00;2.83;;;50.30;1.00;;;;;;4988336;28;21004;-65
2023/09/04 08:48:38;;;;;;;4.67;3.20;;;50.30;1.00;;;;;;4985601;28;20545;-66
2023/09/04 08:51:06;;;;;;;4.20;3.13;;;50.00;1.00;;;;;;4990731;28;20460;-66
2023/09/04 08:53:33;;;;;;;3.53;2.80;;;50.00;1.00;;;;;;4990613;28;20483;-66
2023/09/04 08:56:00;;;;;;;3.60;2.50;;;50.00;1.00;;;;;;4992063;28;20464;-66
2023/09/04 08:58:27;;;;;;;4.20;3.07;;;50.30;1.00;;;;;;4992004;28;20942;-66
2023/09/04 09:00:55;;;;;;;4.43;3.03;;;50.60;1.00;;;;;;4984246;28;20488;-66
2023/09/04 09:03:22;;;;;;;4.50;2.87;;;50.60;1.00;;;;;;4984397;28;20477;-66
2023/09/04 09:05:50;;;;;;;4.10;2.67;;;50.40;1.00;;;;;;4977814;28;20469;-66
2023/09/04 09:08:17;;;;;;;4.13;2.93;;;50.80;1.00;;;;;;4982205;28;20468;-66
2023/09/04 09:10:46;;;;;;;4.23;2.60;;;51.00;1.00;;;;;;4974548;28;20467;-66
2023/09/04 09:13:14;;;;;;;4.80;3.13;;;51.40;1.00;;;;;;4982338;28;20499;-66
2023/09/04 09:15:42;;;;;;;4.67;2.90;;;52.00;1.00;;;;;;4987794;28;20475;-66
2023/09/04 09:18:10;;;;;;;3.47;2.30;;;51.50;1.00;;;;;;4978486;28;20464;-65
2023/09/04 09:20:39;;;;;;;4.10;2.37;;;50.60;1.00;;;;;;4979778;28;20563;-66
2023/09/04 09:23:06;;;;;;;3.57;2.60;;;50.40;1.00;;;;;;4981926;28;20507;-66
2023/09/04 09:25:34;;;;;;;3.50;2.40;;;50.30;1.00;;;;;;4985747;28;20468;-65
2023/09/04 09:28:02;;;;;;;3.63;2.70;;;50.40;1.00;;;;;;4985100;28;20469;-66
2023/09/04 09:30:35;;;;;;;4.43;3.00;;;50.50;1.00;;;;;;4984266;28;20468;-65
2023/09/04 09:33:05;;;;;;;4.80;3.10;;;50.90;1.00;;;;;;4993228;28;20486;-66
2023/09/04 09:35:33;;;;;;;4.03;2.73;;;50.90;1.00;;;;;;4993358;28;21195;-65
2023/09/04 09:38:01;;;;;;;8.60;2.43;;;51.30;1.00;;;;;;4987641;28;20460;-65
2023/09/04 09:40:28;;;;;;;3.40;2.20;;;51.60;1.00;;;;;;4987255;28;20798;-65
2023/09/04 09:42:55;;;;;;;4.10;2.80;;;51.80;1.00;;;;;;4988862;28;20928;-66
2023/09/04 09:45:22;;;;;;;4.23;2.50;;;52.30;1.00;;;;;;4990127;28;20884;-65
2023/09/04 09:47:51;;;;;;;3.37;2.17;;;52.90;1.00;;;;;;4989362;28;20472;-66
2023/09/04 09:50:19;;;;;;;4.00;2.07;;;52.00;1.00;;;;;;4985013;28;20471;-66
2023/09/04 09:52:58;;;;;;;4.00;2.40;;;51.20;1.00;;;;;;4986329;28;21203;-66
2023/09/04 09:55:26;;;;;;;4.40;2.40;;;50.80;1.00;;;;;;4989261;28;20491;-66
2023/09/04 09:57:53;;;;;;;4.80;2.50;;;50.60;1.00;;;;;;4989036;28;20567;-65
2023/09/04 10:00:20;;;;;;;3.60;2.30;;;50.60;1.00;;;;;;4990020;28;21100;-66
2023/09/04 10:02:47;;;;;;;4.70;2.90;;;51.00;1.00;;;;;;4988250;28;20472;-65
2023/09/04 10:05:14;;;;;;;5.50;2.50;;;51.50;1.00;;;;;;4986094;28;20493;-66
2023/09/04 10:07:43;;;;;;;3.87;2.53;;;51.40;1.00;;;;;;4983170;28;20469;-65
2023/09/04 10:10:12;;;;;;;3.77;2.27;;;51.10;1.00;;;;;;4981641;28;20475;-65
2023/09/04 10:12:42;;;;;;;4.57;2.80;;;50.50;1.00;;;;;;4983959;28;20484;-66
2023/09/04 10:15:11;;;;;;;4.17;2.40;;;50.90;1.00;;;;;;4981059;28;20472;-65
2023/09/04 10:17:41;;;;;;;5.20;2.20;;;51.40;1.00;;;;;;4981779;28;20475;-65
2023/09/04 10:20:11;;;;;;;3.63;2.00;;;51.10;1.00;;;;;;4989633;28;20471;-66
2023/09/04 10:22:42;;;;;;;3.20;1.87;;;50.20;1.00;;;;;;4982593;28;20472;-66
2023/09/04 10:25:16;;;;;;;3.40;2.40;;;49.70;1.00;;;;;;4980793;28;20469;-66
2023/09/04 10:27:50;;;;;;;4.87;2.73;;;50.00;1.00;;;;;;4985130;28;20996;-66
2023/09/04 10:30:22;;;;;;;3.70;2.27;;;50.00;1.00;;;;;;4986348;28;20461;-66
2023/09/04 10:32:49;;;;;;;3.80;2.20;;;50.40;1.00;;;;;;4987767;28;20479;-66
2023/09/04 10:35:17;;;;;;;5.17;2.60;;;50.50;1.00;;;;;;4985826;28;20950;-65
2023/09/04 10:37:43;;;;;;;3.50;2.33;;;50.10;1.00;;;;;;4986643;28;20472;-65
2023/09/04 10:40:12;;;;;;;4.77;1.97;;;49.40;1.00;;;;;;4983376;28;20461;-65
2023/09/04 10:42:41;;;;;;;4.10;2.70;;;48.50;1.00;;;;;;4982797;28;20456;-65
2023/09/04 10:45:12;;;;;;;3.80;2.47;;;47.80;1.00;;;;;;4988382;28;20465;-65
2023/09/04 10:47:46;;;;;;;5.93;2.30;;;46.80;1.00;;;;;;4986257;28;20493;-65
2023/09/04 10:50:29;;;;;;;4.40;2.27;;;45.80;1.00;;;;;;4978122;28;20473;-65
2023/09/04 10:52:57;;;;;;;3.77;2.20;;;45.30;1.00;;;;;;4981281;28;20481;-66
2023/09/04 10:55:25;;;;;;;3.90;2.20;;;45.30;1.00;;;;;;4982403;28;20595;-64
2023/09/04 10:57:59;;;;;;;5.23;2.40;;;45.30;1.00;;;;;;4987377;28;20472;-65
2023/09/04 11:00:30;;;;;;;5.50;2.67;;;44.80;1.00;;;;;;4982995;28;20582;-65
2023/09/04 11:02:59;;;;;;;5.87;2.93;;;43.90;1.00;;;;;;4985297;28;20503;-65
2023/09/04 11:05:25;;;;;;;4.33;2.57;;;43.40;1.00;;;;;;4983669;28;20564;-66
2023/09/04 11:07:52;;;;;;;6.53;3.17;;;42.70;1.00;;;;;;4984046;28;21023;-65
2023/09/04 11:10:36;;;;;;;4.07;2.50;;;40.90;1.00;;;;;;4987494;28;20471;-64
2023/09/04 11:13:03;;;;;;;4.50;2.87;;;38.80;1.00;;;;;;4983385;28;21007;-64
2023/09/04 11:15:33;;;;;;;5.97;3.27;;;36.70;1.00;;;;;;4985397;28;20472;-65
2023/09/04 11:18:00;;;;;;;4.83;3.20;;;35.00;1.00;;;;;;4985113;28;20460;-64
2023/09/04 11:20:27;;;;;;;4.77;3.10;;;33.70;1.00;;;;;;4985486;28;20469;-64
2023/09/04 11:22:56;;;;;;;6.43;3.50;;;32.80;1.00;;;;;;4984021;28;20508;-65
2023/09/04 11:25:23;;;;;;;5.50;3.33;;;31.90;1.00;;;;;;4983379;28;20497;-66
2023/09/04 11:27:52;;;;;;;5.23;3.17;;;31.30;1.00;;;;;;4983571;28;20473;-64
2023/09/04 11:30:18;;;;;;;5.20;3.40;;;30.70;1.00;;;;;;4986142;28;21105;-64
2023/09/04 11:32:45;;;;;;;4.80;3.20;;;30.20;1.00;;;;;;4984607;28;21113;-64
2023/09/04 11:35:13;;;;;;;5.17;3.00;;;29.80;1.00;;;;;;4984868;28;20473;-64
2023/09/04 11:37:41;;;;;;;4.90;3.30;;;29.50;1.00;;;;;;4985839;28;21017;-64
2023/09/04 11:40:09;;;;;;;5.47;3.50;;;29.10;1.00;;;;;;4985188;28;20555;-64
2023/09/04 11:42:36;;;;;;;6.10;3.60;;;28.70;1.00;;;;;;4984771;28;20476;-64
2023/09/04 11:45:05;;;;;;;5.00;3.10;;;28.40;1.00;;;;;;4983270;28;20485;-66
2023/09/04 11:47:33;;;;;;;5.33;3.23;;;28.20;1.00;;;;;;4982210;28;20460;-64
2023/09/04 11:49:59;;;;;;;5.83;3.80;;;28.10;1.00;;;;;;4985291;28;20473;-64
2023/09/04 11:52:28;;;;;;;5.27;3.17;;;27.90;1.00;;;;;;4985863;28;20803;-64
2023/09/04 11:54:55;;;;;;;5.37;3.70;;;27.80;1.00;;;;;;4985960;28;20516;-64
2023/09/04 11:57:22;;;;;;;4.90;3.93;;;27.50;1.00;;;;;;4988829;28;20480;-64
2023/09/04 11:59:48;;;;;;;6.13;3.80;;;27.30;1.00;;;;;;4982688;28;20465;-64
2023/09/04 12:02:17;;;;;;;7.00;3.57;;;27.20;1.00;;;;;;4985776;28;20488;-64
2023/09/04 12:04:45;;;;;;;5.00;3.07;;;27.20;1.00;;;;;;4981660;28;20542;-65
2023/09/04 12:07:13;;;;;;;6.50;3.80;;;27.10;1.00;;;;;;4989301;28;20492;-65
2023/09/04 12:09:41;;;;;;;5.43;3.67;;;27.00;1.00;;;;;;4984474;28;20494;-64
2023/09/04 12:12:08;;;;;;;7.10;3.57;;;26.90;1.00;;;;;;4986222;28;20483;-64
2023/09/04 12:14:35;;;;;;;8.23;4.07;;;26.90;1.00;;;;;;4983035;28;20476;-65
2023/09/04 12:17:03;;;;;;;6.47;3.63;;;26.90;1.00;;;;;;4985912;28;20472;-64
2023/09/04 12:19:32;;;;;;;5.43;4.33;;;26.90;1.00;;;;;;4986971;28;20468;-65
2023/09/04 12:22:11;;;;;;;5.17;3.60;;;26.90;1.00;;;;;;4988658;28;21068;-64
2023/09/04 12:24:37;;;;;;;5.97;4.00;;;26.90;1.00;;;;;;4983495;28;20516;-64
2023/09/04 12:27:05;;;;;;;7.30;3.83;;;26.90;1.00;;;;;;4987574;28;20461;-64
2023/09/04 12:29:31;;;;;;;5.77;3.70;;;26.90;1.00;;;;;;4982946;28;20476;-65
2023/09/04 12:31:59;;;;;;;5.03;3.60;;;26.80;1.00;;;;;;4984545;28;20480;-65
2023/09/04 12:34:27;;;;;;;5.83;3.63;;;26.90;1.00;;;;;;4985526;28;20485;-65
2023/09/04 12:36:56;;;;;;;5.87;4.07;;;26.90;1.00;;;;;;4987173;28;20605;-65
2023/09/04 12:39:23;;;;;;;5.83;4.17;;;26.80;1.00;;;;;;4984967;28;20461;-65
2023/09/04 12:41:55;;;;;;;5.67;3.17;;;26.80;1.00;;;;;;4993378;28;20989;-65
2023/09/04 12:44:22;;;;;;;6.50;4.07;;;26.90;1.00;;;;;;4986142;28;20484;-65
2023/09/04 12:46:48;;;;;;;4.90;3.40;;;26.80;1.00;;;;;;4992760;28;20484;-65
2023/09/04 12:49:15;;;;;;;6.23;3.50;;;26.80;1.00;;;;;;4984611;28;20853;-65
2023/09/04 12:51:42;;;;;;;7.87;4.53;;;26.70;1.00;;;;;;5002719;23;20460;-64
2023/09/04 12:54:10;;;;;;;5.30;3.70;;;26.70;1.00;;;;;;4981131;28;20489;-64
2023/09/04 12:56:36;;;;;;;5.67;3.50;;;26.60;1.00;;;;;;4987775;28;20480;-64